createdAt,value
2023-02-26T00:01:28.910Z,3.70
2023-02-26T00:03:59.972Z,3.60
2023-02-26T00:06:29.409Z,3.80
2023-02-26T00:08:57.843Z,3.70
2023-02-26T00:11:25.270Z,3.60
2023-02-26T00:13:52.808Z,3.80
2023-02-26T00:16:33.305Z,3.70
2023-02-26T00:19:03.775Z,3.50
2023-02-26T00:21:32.890Z,3.60
2023-02-26T00:24:03.065Z,3.60
2023-02-26T00:26:31.937Z,3.70
2023-02-26T00:29:00.184Z,3.70
2023-02-26T00:31:28.322Z,3.70
2023-02-26T00:33:57.178Z,3.60
2023-02-26T00:36:34.422Z,3.60
2023-02-26T00:39:05.296Z,3.70
2023-02-26T00:41:33.205Z,3.70
2023-02-26T00:44:00.644Z,3.70
2023-02-26T00:46:43.328Z,3.60
2023-02-26T00:49:28.838Z,3.70
2023-02-26T00:51:58.917Z,3.60
2023-02-26T00:54:28.165Z,3.60
2023-02-26T00:56:56.301Z,3.70
2023-02-26T00:59:23.618Z,3.70
2023-02-26T01:01:52.043Z,3.60
2023-02-26T01:04:23.268Z,3.60
2023-02-26T01:06:53.760Z,3.60
2023-02-26T01:09:25.649Z,3.60
2023-02-26T01:11:57.374Z,3.50
2023-02-26T01:14:25.171Z,3.60
2023-02-26T01:17:08.406Z,3.40
2023-02-26T01:20:11.933Z,3.20
2023-02-26T01:22:59.454Z,3.40
2023-02-26T01:25:36.301Z,3.30
2023-02-26T01:28:04.313Z,3.30
2023-02-26T01:30:31.742Z,3.20
2023-02-26T01:33:02.656Z,3.10
2023-02-26T01:35:32.697Z,3.30
2023-02-26T01:38:16.251Z,3.20
2023-02-26T01:41:19.791Z,3.20
2023-02-26T01:44:05.028Z,3.10
2023-02-26T01:46:58.117Z,3.20
2023-02-26T01:49:26.004Z,3.10
2023-02-26T01:51:56.394Z,3.10
2023-02-26T01:54:30.732Z,2.90
2023-02-26T01:57:18.440Z,2.90
2023-02-26T01:59:50.801Z,2.90
2023-02-26T02:02:25.689Z,2.70
2023-02-26T02:04:54.267Z,2.80
2023-02-26T02:07:21.501Z,2.90
2023-02-26T02:09:49.071Z,2.90
2023-02-26T02:12:43.110Z,2.70
2023-02-26T02:15:19.968Z,2.80
2023-02-26T02:18:02.174Z,2.80
2023-02-26T02:21:11.516Z,2.90
2023-02-26T02:24:18.028Z,2.90
2023-02-26T02:26:51.085Z,2.80
2023-02-26T02:29:33.700Z,2.90
2023-02-26T02:32:11.033Z,2.90
2023-02-26T02:34:41.482Z,2.70
2023-02-26T02:37:43.516Z,2.70
2023-02-26T02:40:22.776Z,2.80
2023-02-26T02:42:58.470Z,2.80
2023-02-26T02:45:46.550Z,2.80
2023-02-26T02:48:37.418Z,2.70
2023-02-26T02:51:24.190Z,2.80
2023-02-26T02:53:59.579Z,2.70
2023-02-26T02:56:51.697Z,2.70
2023-02-26T02:59:44.356Z,2.70
2023-02-26T03:02:26.988Z,2.60
2023-02-26T03:04:54.255Z,2.70
2023-02-26T03:07:24.356Z,2.60
2023-02-26T03:09:52.647Z,2.60
2023-02-26T03:12:20.182Z,2.60
2023-02-26T03:14:47.615Z,2.70
2023-02-26T03:17:42.308Z,2.70
2023-02-26T03:20:12.520Z,2.50
2023-02-26T03:22:57.714Z,2.50
2023-02-26T03:25:35.364Z,2.60
2023-02-26T03:28:25.669Z,2.60
2023-02-26T03:30:58.761Z,2.60
2023-02-26T03:33:34.510Z,2.60
2023-02-26T03:36:08.768Z,2.60
2023-02-26T03:38:50.305Z,2.40
2023-02-26T03:41:25.297Z,2.50
2023-02-26T03:44:08.331Z,2.60
2023-02-26T03:46:41.592Z,2.50
2023-02-26T03:49:14.091Z,2.70
2023-02-26T03:51:45.845Z,2.60
2023-02-26T03:54:51.128Z,2.60
2023-02-26T03:57:45.569Z,2.50
2023-02-26T04:00:23.774Z,2.50
2023-02-26T04:03:12.106Z,2.50
2023-02-26T04:05:43.946Z,2.40
2023-02-26T04:08:11.089Z,2.40
2023-02-26T04:10:44.224Z,2.40
2023-02-26T04:13:11.308Z,2.40
2023-02-26T04:15:39.623Z,2.40
2023-02-26T04:18:06.728Z,2.50
2023-02-26T04:20:35.077Z,2.60
2023-02-26T04:23:02.206Z,2.60
2023-02-26T04:25:30.947Z,2.60
2023-02-26T04:27:59.958Z,2.50
2023-02-26T04:30:27.961Z,2.50
2023-02-26T04:32:55.840Z,2.10
2023-02-26T04:35:23.002Z,2.40
2023-02-26T04:37:49.969Z,2.50
2023-02-26T04:40:17.504Z,2.50
2023-02-26T04:42:47.263Z,2.50
2023-02-26T04:45:17.492Z,2.50
2023-02-26T04:47:46.521Z,2.40
2023-02-26T04:50:14.585Z,2.40
2023-02-26T04:52:42.819Z,2.40
2023-02-26T04:55:10.138Z,2.30
2023-02-26T04:57:38.890Z,2.20
2023-02-26T05:00:10.076Z,2.30
2023-02-26T05:02:38.945Z,2.30
2023-02-26T05:05:06.058Z,2.30
2023-02-26T05:07:34.392Z,2.30
2023-02-26T05:10:01.373Z,2.30
2023-02-26T05:12:28.614Z,2.10
2023-02-26T05:14:55.577Z,2.20
2023-02-26T05:17:24.930Z,2.00
2023-02-26T05:19:54.184Z,2.20
2023-02-26T05:22:22.551Z,2.10
2023-02-26T05:24:49.956Z,2.10
2023-02-26T05:27:16.964Z,2.10
2023-02-26T05:29:46.644Z,2.00
2023-02-26T05:32:15.266Z,1.90
2023-02-26T05:34:42.338Z,1.90
2023-02-26T05:37:09.251Z,2.00
2023-02-26T05:39:36.227Z,2.00
2023-02-26T05:42:03.240Z,2.10
2023-02-26T05:44:30.266Z,1.70
2023-02-26T05:46:57.903Z,1.80
2023-02-26T05:49:24.850Z,1.90
2023-02-26T05:51:52.928Z,2.00
2023-02-26T05:54:19.986Z,1.90
2023-02-26T05:56:47.018Z,2.10
2023-02-26T05:59:14.250Z,2.10
2023-02-26T06:01:42.841Z,2.00
2023-02-26T06:04:10.057Z,2.00
2023-02-26T06:06:37.212Z,2.00
2023-02-26T06:09:04.882Z,2.00
2023-02-26T06:11:34.041Z,2.00
2023-02-26T06:14:02.045Z,1.90
2023-02-26T06:16:30.262Z,2.00
2023-02-26T06:18:57.279Z,2.00
2023-02-26T06:21:24.478Z,1.90
2023-02-26T06:23:51.965Z,1.90
2023-02-26T06:26:18.980Z,1.90
2023-02-26T06:28:45.925Z,2.00
2023-02-26T06:31:12.875Z,1.90
2023-02-26T06:33:39.821Z,1.90
2023-02-26T06:36:07.348Z,1.90
2023-02-26T06:38:34.509Z,1.90
2023-02-26T06:41:01.612Z,2.00
2023-02-26T06:43:28.678Z,2.00
2023-02-26T06:45:59.213Z,1.90
2023-02-26T06:48:27.570Z,2.00
2023-02-26T06:50:55.857Z,2.00
2023-02-26T06:53:23.181Z,2.10
2023-02-26T06:55:52.368Z,2.10
2023-02-26T06:58:20.713Z,2.20
2023-02-26T07:00:49.049Z,2.30
2023-02-26T07:03:18.201Z,2.30
2023-02-26T07:05:47.185Z,2.20
2023-02-26T07:08:14.699Z,2.30
2023-02-26T07:10:42.824Z,2.10
2023-02-26T07:13:10.063Z,1.90
2023-02-26T07:15:37.116Z,2.00
2023-02-26T07:18:04.772Z,2.00
2023-02-26T07:20:32.803Z,2.20
2023-02-26T07:23:00.110Z,2.40
2023-02-26T07:25:30.084Z,2.30
2023-02-26T07:27:58.373Z,2.30
2023-02-26T07:30:25.521Z,2.20
2023-02-26T07:32:56.122Z,2.30
2023-02-26T07:35:23.189Z,2.40
2023-02-26T07:37:50.202Z,2.60
2023-02-26T07:40:18.009Z,2.60
2023-02-26T07:42:45.004Z,2.70
2023-02-26T07:45:12.133Z,2.80
2023-02-26T07:47:39.121Z,2.90
2023-02-26T07:50:06.832Z,3.00
2023-02-26T07:52:35.282Z,3.00
2023-02-26T07:55:05.254Z,3.10
2023-02-26T07:57:32.658Z,3.00
2023-02-26T07:59:59.648Z,3.00
2023-02-26T08:02:26.710Z,3.20
2023-02-26T08:04:55.311Z,3.30
2023-02-26T08:07:24.731Z,3.50
2023-02-26T08:09:51.656Z,3.50
2023-02-26T08:12:18.683Z,3.30
2023-02-26T08:14:46.468Z,3.70
2023-02-26T08:17:13.441Z,3.90
2023-02-26T08:19:43.510Z,4.10
2023-02-26T08:22:10.465Z,4.00
2023-02-26T08:24:39.334Z,4.10
2023-02-26T08:27:06.277Z,4.20
2023-02-26T08:29:33.195Z,4.30
2023-02-26T08:32:00.280Z,4.30
2023-02-26T08:34:27.457Z,4.00
2023-02-26T08:36:54.382Z,4.10
2023-02-26T08:39:21.373Z,4.20
2023-02-26T08:41:48.352Z,4.40
2023-02-26T08:44:15.426Z,4.50
2023-02-26T08:46:42.557Z,4.30
2023-02-26T08:49:09.679Z,4.40
2023-02-26T08:51:37.021Z,4.40
2023-02-26T08:54:04.238Z,4.30
2023-02-26T08:56:32.120Z,4.20
2023-02-26T08:58:59.208Z,4.30
2023-02-26T09:01:26.571Z,4.30
2023-02-26T09:03:53.719Z,4.40
2023-02-26T09:06:20.750Z,4.40
2023-02-26T09:08:48.035Z,4.70
2023-02-26T09:11:15.273Z,4.50
2023-02-26T09:13:42.849Z,5.10
2023-02-26T09:16:10.107Z,5.50
2023-02-26T09:18:37.487Z,5.70
2023-02-26T09:21:04.908Z,5.80
2023-02-26T09:23:32.209Z,5.80
2023-02-26T09:25:59.285Z,5.60
2023-02-26T09:28:26.552Z,5.40
2023-02-26T09:30:57.935Z,5.00
2023-02-26T09:33:25.534Z,5.00
2023-02-26T09:35:53.011Z,5.00
2023-02-26T09:38:20.355Z,4.40
2023-02-26T09:40:50.800Z,4.30
2023-02-26T09:43:35.895Z,4.10
2023-02-26T09:46:11.556Z,4.10
2023-02-26T09:48:40.216Z,4.30
2023-02-26T09:51:19.331Z,4.10
2023-02-26T09:53:50.174Z,4.10
2023-02-26T09:56:21.688Z,4.60
2023-02-26T09:58:49.513Z,4.90
2023-02-26T10:01:26.689Z,4.90
2023-02-26T10:04:21.664Z,5.10
2023-02-26T10:07:10.455Z,5.60
2023-02-26T10:09:59.059Z,5.60
2023-02-26T10:12:30.515Z,6.00
2023-02-26T10:15:22.282Z,6.10
2023-02-26T10:18:00.781Z,6.00
2023-02-26T10:20:34.158Z,5.80
2023-02-26T10:23:23.789Z,5.20
2023-02-26T10:26:06.765Z,4.80
2023-02-26T10:29:00.185Z,5.20
2023-02-26T10:31:43.056Z,5.40
2023-02-26T10:34:26.795Z,5.60
2023-02-26T10:37:08.925Z,5.60
2023-02-26T10:40:19.309Z,5.50
2023-02-26T10:43:14.908Z,5.20
2023-02-26T10:46:06.636Z,4.90
2023-02-26T10:48:55.637Z,5.80
2023-02-26T10:51:35.975Z,5.80
2023-02-26T10:54:22.824Z,5.10
2023-02-26T10:56:49.942Z,4.90
2023-02-26T10:59:18.536Z,4.90
2023-02-26T11:01:46.233Z,4.80
2023-02-26T11:04:18.272Z,4.70
2023-02-26T11:07:00.634Z,4.70
2023-02-26T11:09:36.052Z,4.70
2023-02-26T11:12:18.052Z,4.40
2023-02-26T11:14:48.567Z,4.90
2023-02-26T11:17:32.781Z,5.20
2023-02-26T11:20:19.376Z,5.00
2023-02-26T11:22:56.348Z,4.60
2023-02-26T11:25:28.807Z,4.50
2023-02-26T11:28:04.569Z,4.30
2023-02-26T11:30:38.343Z,4.10
2023-02-26T11:33:18.675Z,4.00
2023-02-26T11:35:47.068Z,4.10
2023-02-26T11:38:27.446Z,4.30
2023-02-26T11:40:57.400Z,4.60
2023-02-26T11:43:33.193Z,5.30
2023-02-26T11:46:02.854Z,6.20
2023-02-26T11:48:47.551Z,6.30
2023-02-26T11:51:20.821Z,6.60
2023-02-26T11:53:57.264Z,6.90
2023-02-26T11:56:31.910Z,7.70
2023-02-26T11:59:08.723Z,7.40
2023-02-26T12:01:37.264Z,7.00
2023-02-26T12:04:04.401Z,6.20
2023-02-26T12:06:31.744Z,6.10
2023-02-26T12:08:59.626Z,5.90
2023-02-26T12:12:23.668Z,5.40
2023-02-26T12:15:09.621Z,4.70
2023-02-26T12:17:48.722Z,4.60
2023-02-26T12:20:32.482Z,4.00
2023-02-26T12:23:26.718Z,3.70
2023-02-26T12:26:25.119Z,4.10
2023-02-26T12:29:49.400Z,4.30
2023-02-26T12:32:25.762Z,4.60
2023-02-26T12:35:14.029Z,6.10
2023-02-26T12:38:15.315Z,6.70
2023-02-26T12:40:54.103Z,5.60
2023-02-26T12:43:46.807Z,5.10
2023-02-26T12:46:54.666Z,5.00
2023-02-26T12:49:43.288Z,5.90
2023-02-26T12:52:41.381Z,7.30
2023-02-26T12:55:15.459Z,7.40
2023-02-26T12:58:20.167Z,7.40
2023-02-26T13:01:24.216Z,7.00
2023-02-26T13:04:02.343Z,7.40
2023-02-26T13:06:54.540Z,6.70
2023-02-26T13:09:22.063Z,6.40
2023-02-26T13:12:27.232Z,6.20
2023-02-26T13:14:54.728Z,5.60
2023-02-26T13:17:58.167Z,5.50
2023-02-26T13:20:29.720Z,5.20
2023-02-26T13:23:14.304Z,5.30
2023-02-26T13:25:49.416Z,5.30
2023-02-26T13:28:39.315Z,5.30
2023-02-26T13:31:23.228Z,5.20
2023-02-26T13:33:55.668Z,5.10
2023-02-26T13:36:25.902Z,5.10
2023-02-26T13:39:21.804Z,5.10
2023-02-26T13:42:25.047Z,4.90
2023-02-26T13:45:20.047Z,4.90
2023-02-26T13:48:07.423Z,4.60
2023-02-26T13:51:07.858Z,4.70
2023-02-26T13:53:42.142Z,4.10
2023-02-26T13:56:49.449Z,3.80
2023-02-26T13:59:20.326Z,3.90
2023-02-26T14:01:50.234Z,3.70
2023-02-26T14:04:23.912Z,3.80
2023-02-26T14:07:13.152Z,3.60
2023-02-26T14:09:57.086Z,3.60
2023-02-26T14:12:36.291Z,3.70
2023-02-26T14:15:28.697Z,3.70
2023-02-26T14:18:06.033Z,3.90
2023-02-26T14:20:36.411Z,4.00
2023-02-26T14:23:28.569Z,4.00
2023-02-26T14:26:04.969Z,4.10
2023-02-26T14:28:44.466Z,4.20
2023-02-26T14:31:12.213Z,4.10
2023-02-26T14:34:00.529Z,4.00
2023-02-26T14:36:47.075Z,4.10
2023-02-26T14:39:30.356Z,4.10
2023-02-26T14:42:11.750Z,4.20
2023-02-26T14:44:49.560Z,4.20
2023-02-26T14:47:18.300Z,4.30
2023-02-26T14:49:50.824Z,4.20
2023-02-26T14:52:50.989Z,4.20
2023-02-26T14:55:38.631Z,4.00
2023-02-26T14:58:36.830Z,4.10
2023-02-26T15:01:21.793Z,3.90
2023-02-26T15:04:11.391Z,4.00
2023-02-26T15:07:23.983Z,4.10
2023-02-26T15:10:01.114Z,4.00
2023-02-26T15:13:12.541Z,4.00
2023-02-26T15:16:16.801Z,3.90
2023-02-26T15:18:57.432Z,3.70
2023-02-26T15:21:57.587Z,3.70
2023-02-26T15:24:27.476Z,3.60
2023-02-26T15:27:00.616Z,3.70
2023-02-26T15:29:36.395Z,3.70
2023-02-26T15:32:23.986Z,3.50
2023-02-26T15:35:11.351Z,3.40
2023-02-26T15:37:41.898Z,3.40
2023-02-26T15:40:11.318Z,3.40
2023-02-26T15:42:44.048Z,3.30
2023-02-26T15:45:22.728Z,3.40
2023-02-26T15:47:58.021Z,3.30
2023-02-26T15:50:37.936Z,3.40
2023-02-26T15:53:08.555Z,3.30
2023-02-26T15:55:48.468Z,3.10
2023-02-26T15:58:55.498Z,3.20
2023-02-26T16:01:26.905Z,3.30
2023-02-26T16:03:59.627Z,3.30
2023-02-26T16:06:48.688Z,3.30
2023-02-26T16:09:26.038Z,3.30
2023-02-26T16:11:57.563Z,3.00
2023-02-26T16:14:39.064Z,3.20
2023-02-26T16:17:12.466Z,3.20
2023-02-26T16:19:50.910Z,3.20
2023-02-26T16:22:29.634Z,3.20
2023-02-26T16:25:17.800Z,3.00
2023-02-26T16:27:52.934Z,3.10
2023-02-26T16:30:27.549Z,3.00
2023-02-26T16:32:56.237Z,2.90
2023-02-26T16:35:34.882Z,2.90
2023-02-26T16:38:17.170Z,3.00
2023-02-26T16:40:46.567Z,3.00
2023-02-26T16:43:24.669Z,3.00
2023-02-26T16:45:57.512Z,2.80
2023-02-26T16:49:15.905Z,2.80
2023-02-26T16:51:50.261Z,3.00
2023-02-26T16:54:23.530Z,3.00
2023-02-26T16:57:20.947Z,2.80
2023-02-26T16:59:58.674Z,2.80
2023-02-26T17:02:35.481Z,2.90
2023-02-26T17:05:28.832Z,2.80
2023-02-26T17:08:17.381Z,2.80
2023-02-26T17:10:47.920Z,2.80
2023-02-26T17:13:19.768Z,2.90
2023-02-26T17:15:49.714Z,2.80
2023-02-26T17:18:20.615Z,2.70
2023-02-26T17:20:57.387Z,2.70
2023-02-26T17:23:32.230Z,2.80
2023-02-26T17:26:05.962Z,2.70
2023-02-26T17:28:37.385Z,2.70
2023-02-26T17:31:06.063Z,2.80
2023-02-26T17:33:42.143Z,2.60
2023-02-26T17:36:17.007Z,2.70
2023-02-26T17:38:49.112Z,2.70
2023-02-26T17:41:20.849Z,2.80
2023-02-26T17:43:51.255Z,2.60
2023-02-26T17:46:20.797Z,2.70
2023-02-26T17:48:48.904Z,2.70
2023-02-26T17:51:19.310Z,2.70
2023-02-26T17:53:48.040Z,2.80
2023-02-26T17:56:24.198Z,2.80
2023-02-26T17:58:57.529Z,2.70
2023-02-26T18:01:31.705Z,2.70
2023-02-26T18:04:02.759Z,2.70
2023-02-26T18:06:38.567Z,2.70
2023-02-26T18:09:07.675Z,2.70
2023-02-26T18:11:37.252Z,2.70
2023-02-26T18:14:06.405Z,2.70
2023-02-26T18:16:43.628Z,2.70
2023-02-26T18:19:24.046Z,2.70
2023-02-26T18:21:52.541Z,2.60
2023-02-26T18:24:20.568Z,2.70
2023-02-26T18:26:48.357Z,2.70
2023-02-26T18:29:17.101Z,2.50
2023-02-26T18:31:45.472Z,2.70
2023-02-26T18:34:13.967Z,2.60
2023-02-26T18:36:41.809Z,2.70
2023-02-26T18:39:15.256Z,2.50
2023-02-26T18:41:45.029Z,2.60
2023-02-26T18:44:15.030Z,2.50
2023-02-26T18:46:46.449Z,2.50
2023-02-26T18:49:22.638Z,2.30
2023-02-26T18:51:50.466Z,2.40
2023-02-26T18:54:18.451Z,2.40
2023-02-26T18:56:48.132Z,2.40
2023-02-26T18:59:16.472Z,2.40
2023-02-26T19:01:44.609Z,2.40
2023-02-26T19:04:12.893Z,2.40
2023-02-26T19:06:41.086Z,2.40
2023-02-26T19:09:10.740Z,2.50
2023-02-26T19:11:39.973Z,2.50
2023-02-26T19:14:11.791Z,2.50
2023-02-26T19:16:44.741Z,2.40
2023-02-26T19:19:17.072Z,2.40
2023-02-26T19:21:45.834Z,2.50
2023-02-26T19:24:15.594Z,2.40
2023-02-26T19:26:44.175Z,2.40
2023-02-26T19:29:18.593Z,2.30
2023-02-26T19:31:47.448Z,2.30
2023-02-26T19:34:17.467Z,2.40
2023-02-26T19:36:49.802Z,2.30
2023-02-26T19:39:20.430Z,2.30
2023-02-26T19:41:51.182Z,2.20
2023-02-26T19:44:20.857Z,2.30
2023-02-26T19:46:49.981Z,2.30
2023-02-26T19:49:23.974Z,2.30
2023-02-26T19:51:57.086Z,2.20
2023-02-26T19:54:28.779Z,2.10
2023-02-26T19:56:59.032Z,2.20
2023-02-26T19:59:27.485Z,2.20
2023-02-26T20:01:58.991Z,2.30
2023-02-26T20:04:28.303Z,2.10
2023-02-26T20:06:56.079Z,2.10
2023-02-26T20:09:24.942Z,2.10
2023-02-26T20:11:54.882Z,2.20
2023-02-26T20:14:23.465Z,2.00
2023-02-26T20:16:52.595Z,2.00
2023-02-26T20:19:21.971Z,2.00
2023-02-26T20:21:53.088Z,2.10
2023-02-26T20:24:27.039Z,2.10
2023-02-26T20:26:57.995Z,2.10
2023-02-26T20:29:26.974Z,2.10
2023-02-26T20:31:58.552Z,2.00
2023-02-26T20:34:27.319Z,1.90
2023-02-26T20:36:57.948Z,2.00
2023-02-26T20:39:28.457Z,1.90
2023-02-26T20:41:57.000Z,2.10
2023-02-26T20:44:30.109Z,2.00
2023-02-26T20:46:58.555Z,1.90
2023-02-26T20:49:30.142Z,2.00
2023-02-26T20:52:02.593Z,2.00
2023-02-26T20:54:31.176Z,2.10
2023-02-26T20:56:59.309Z,2.00
2023-02-26T20:59:26.898Z,2.00
2023-02-26T21:01:55.146Z,2.00
2023-02-26T21:04:24.370Z,2.10
2023-02-26T21:06:52.379Z,2.00
2023-02-26T21:09:20.977Z,2.10
2023-02-26T21:11:52.724Z,2.00
2023-02-26T21:14:20.823Z,2.10
2023-02-26T21:16:49.842Z,2.10
2023-02-26T21:19:17.874Z,2.10
2023-02-26T21:21:45.577Z,2.20
2023-02-26T21:24:13.327Z,2.20
2023-02-26T21:26:41.249Z,2.30
2023-02-26T21:29:08.711Z,2.30
2023-02-26T21:31:36.555Z,2.30
2023-02-26T21:34:29.973Z,2.30
2023-02-26T21:36:51.938Z,2.00
2023-02-26T21:39:19.647Z,2.20
2023-02-26T21:41:46.937Z,2.20
2023-02-26T21:44:13.927Z,2.00
2023-02-26T21:46:41.438Z,2.00
2023-02-26T21:49:09.010Z,2.10
2023-02-26T21:51:36.484Z,2.20
2023-02-26T21:54:04.163Z,2.10
2023-02-26T21:56:31.642Z,2.10
2023-02-26T21:58:59.296Z,2.30
2023-02-26T22:01:27.048Z,2.20
2023-02-26T22:03:54.192Z,2.20
2023-02-26T22:06:21.254Z,2.20
2023-02-26T22:08:48.247Z,2.10
2023-02-26T22:11:19.519Z,2.20
2023-02-26T22:13:49.710Z,2.20
2023-02-26T22:16:17.203Z,2.20
2023-02-26T22:18:44.426Z,2.00
2023-02-26T22:21:11.599Z,2.00
2023-02-26T22:23:39.884Z,2.20
2023-02-26T22:26:07.725Z,2.10
2023-02-26T22:28:35.339Z,2.00
2023-02-26T22:31:02.327Z,2.10
2023-02-26T22:33:29.328Z,2.10
2023-02-26T22:35:58.099Z,2.10
2023-02-26T22:38:25.608Z,2.20
2023-02-26T22:40:53.167Z,1.90
2023-02-26T22:43:20.494Z,1.90
2023-02-26T22:45:49.829Z,1.90
2023-02-26T22:48:17.753Z,1.70
2023-02-26T22:50:45.018Z,1.90
2023-02-26T22:53:12.005Z,2.00
2023-02-26T22:55:38.943Z,2.00
2023-02-26T22:58:05.898Z,2.10
2023-02-26T23:00:32.873Z,2.00
2023-02-26T23:02:59.831Z,2.10
2023-02-26T23:05:26.975Z,2.10
2023-02-26T23:07:54.093Z,2.20
2023-02-26T23:10:21.581Z,2.10
2023-02-26T23:12:48.616Z,2.10
2023-02-26T23:15:16.116Z,2.00
2023-02-26T23:17:43.647Z,1.90
2023-02-26T23:20:14.010Z,2.00
2023-02-26T23:22:43.749Z,2.00
2023-02-26T23:25:12.222Z,2.10
2023-02-26T23:27:39.760Z,2.00
2023-02-26T23:30:08.358Z,2.00
2023-02-26T23:32:35.533Z,1.90
2023-02-26T23:35:06.625Z,2.00
2023-02-26T23:37:33.737Z,1.90
2023-02-26T23:40:00.666Z,1.80
2023-02-26T23:42:27.786Z,1.80
2023-02-26T23:44:54.880Z,1.80
2023-02-26T23:47:23.335Z,1.80
2023-02-26T23:49:50.213Z,1.60
2023-02-26T23:52:20.467Z,1.60
2023-02-26T23:54:47.573Z,1.60
2023-02-26T23:57:14.649Z,1.70
2023-02-26T23:59:41.659Z,1.70
